createdAt,value
2022-11-20T00:01:38.003Z,31.87
2022-11-20T00:04:06.211Z,34.13
2022-11-20T00:06:34.375Z,31.93
2022-11-20T00:09:03.667Z,33.73
2022-11-20T00:11:34.239Z,33.10
2022-11-20T00:14:04.010Z,35.03
2022-11-20T00:16:34.300Z,33.57
2022-11-20T00:19:02.308Z,34.37
2022-11-20T00:21:31.072Z,32.43
2022-11-20T00:24:00.081Z,33.53
2022-11-20T00:26:29.134Z,33.60
2022-11-20T00:29:00.297Z,36.73
2022-11-20T00:31:28.874Z,38.03
2022-11-20T00:33:57.097Z,34.83
2022-11-20T00:36:28.285Z,33.53
2022-11-20T00:38:58.053Z,35.43
2022-11-20T00:41:27.549Z,35.50
2022-11-20T00:43:57.225Z,29.50
2022-11-20T00:46:28.297Z,30.40
2022-11-20T00:48:56.573Z,29.70
2022-11-20T00:51:26.953Z,31.60
2022-11-20T00:53:57.499Z,31.27
2022-11-20T00:56:25.648Z,30.77
2022-11-20T00:58:53.602Z,31.13
2022-11-20T01:01:25.236Z,29.33
2022-11-20T01:03:56.989Z,30.70
2022-11-20T01:06:27.427Z,30.33
2022-11-20T01:08:58.157Z,29.80
2022-11-20T01:11:27.871Z,31.93
2022-11-20T01:13:58.167Z,31.00
2022-11-20T01:16:28.278Z,29.30
2022-11-20T01:18:59.520Z,31.10
2022-11-20T01:21:29.787Z,30.00
2022-11-20T01:23:58.649Z,29.07
2022-11-20T01:26:28.364Z,30.77
2022-11-20T01:28:57.405Z,31.10
2022-11-20T01:31:27.995Z,31.67
2022-11-20T01:34:00.419Z,31.53
2022-11-20T01:36:31.053Z,30.47
2022-11-20T01:39:00.964Z,32.03
2022-11-20T01:41:47.819Z,30.40
2022-11-20T01:44:17.909Z,31.30
2022-11-20T01:46:57.996Z,30.47
2022-11-20T01:49:36.120Z,32.93
2022-11-20T01:52:07.410Z,31.57
2022-11-20T01:54:40.340Z,31.57
2022-11-20T01:57:12.218Z,32.23
2022-11-20T01:59:43.294Z,32.00
2022-11-20T02:02:11.636Z,32.07
2022-11-20T02:04:41.045Z,31.60
2022-11-20T02:07:10.499Z,30.63
2022-11-20T02:09:38.526Z,31.73
2022-11-20T02:12:27.694Z,32.03
2022-11-20T02:14:55.044Z,30.43
2022-11-20T02:17:23.206Z,31.23
2022-11-20T02:19:53.205Z,30.97
2022-11-20T02:22:26.967Z,31.80
2022-11-20T02:24:56.906Z,32.20
2022-11-20T02:27:25.183Z,31.13
2022-11-20T02:29:56.238Z,29.10
2022-11-20T02:32:26.485Z,30.93
2022-11-20T02:34:54.682Z,30.23
2022-11-20T02:37:23.307Z,29.67
2022-11-20T02:39:53.565Z,29.00
2022-11-20T02:42:22.985Z,30.37
2022-11-20T02:44:51.076Z,27.90
2022-11-20T02:47:19.147Z,28.23
2022-11-20T02:49:47.167Z,28.90
2022-11-20T02:52:15.262Z,28.07
2022-11-20T02:54:43.289Z,29.43
2022-11-20T02:57:11.393Z,28.37
2022-11-20T02:59:40.907Z,28.20
2022-11-20T03:02:09.124Z,28.97
2022-11-20T03:04:37.258Z,26.83
2022-11-20T03:07:05.752Z,28.97
2022-11-20T03:09:33.898Z,26.00
2022-11-20T03:12:02.067Z,26.37
2022-11-20T03:14:33.405Z,28.77
2022-11-20T03:17:02.917Z,27.77
2022-11-20T03:19:31.181Z,25.50
2022-11-20T03:21:59.231Z,26.33
2022-11-20T03:24:27.446Z,25.23
2022-11-20T03:26:55.571Z,26.77
2022-11-20T03:29:23.723Z,25.20
2022-11-20T03:31:52.028Z,25.67
2022-11-20T03:34:21.426Z,25.20
2022-11-20T03:36:49.536Z,24.10
2022-11-20T03:39:17.757Z,23.47
2022-11-20T03:41:45.951Z,23.30
2022-11-20T03:44:14.532Z,23.73
2022-11-20T03:46:42.584Z,23.67
2022-11-20T03:49:10.659Z,23.47
2022-11-20T03:51:40.145Z,20.23
2022-11-20T03:54:11.365Z,21.43
2022-11-20T03:56:40.880Z,16.73
2022-11-20T03:59:09.187Z,16.73
2022-11-20T04:01:39.095Z,19.10
2022-11-20T04:04:07.170Z,18.30
2022-11-20T04:06:38.437Z,18.03
2022-11-20T04:09:08.666Z,17.73
2022-11-20T04:11:38.268Z,16.43
2022-11-20T04:14:08.032Z,15.73
2022-11-20T04:16:37.897Z,15.07
2022-11-20T04:19:08.031Z,14.33
2022-11-20T04:21:36.207Z,16.20
2022-11-20T04:24:05.482Z,16.97
2022-11-20T04:26:35.633Z,15.73
2022-11-20T04:29:03.796Z,15.93
2022-11-20T04:31:34.850Z,16.03
2022-11-20T04:34:03.772Z,13.43
2022-11-20T04:36:50.187Z,13.87
2022-11-20T04:39:18.185Z,11.80
2022-11-20T04:41:47.841Z,11.20
2022-11-20T04:44:16.045Z,11.43
2022-11-20T04:46:44.850Z,9.90
2022-11-20T04:49:13.702Z,9.73
2022-11-20T04:51:41.815Z,9.53
2022-11-20T04:54:10.823Z,9.93
2022-11-20T04:56:38.872Z,10.03
2022-11-20T04:59:08.281Z,8.87
2022-11-20T05:01:36.418Z,9.27
2022-11-20T05:04:04.603Z,13.10
2022-11-20T05:06:32.725Z,10.37
2022-11-20T05:09:02.032Z,10.23
2022-11-20T05:11:30.852Z,7.40
2022-11-20T05:14:01.535Z,9.10
2022-11-20T05:16:31.356Z,7.33
2022-11-20T05:18:59.488Z,8.27
2022-11-20T05:21:27.430Z,16.87
2022-11-20T05:23:55.560Z,8.33
2022-11-20T05:26:25.021Z,9.63
2022-11-20T05:28:54.044Z,10.63
2022-11-20T05:31:27.045Z,8.53
2022-11-20T05:33:58.651Z,12.20
2022-11-20T05:36:26.786Z,11.93
2022-11-20T05:39:01.039Z,9.27
2022-11-20T05:41:29.843Z,9.97
2022-11-20T05:43:58.956Z,10.87
2022-11-20T05:46:29.071Z,10.47
2022-11-20T05:49:00.090Z,10.17
2022-11-20T05:51:28.579Z,12.30
2022-11-20T05:53:58.973Z,11.77
2022-11-20T05:56:27.128Z,12.53
2022-11-20T05:58:55.247Z,11.17
2022-11-20T06:01:25.468Z,11.53
2022-11-20T06:03:55.278Z,12.90
2022-11-20T06:06:26.303Z,12.57
2022-11-20T06:08:54.458Z,12.33
2022-11-20T06:11:22.736Z,9.63
2022-11-20T06:13:50.774Z,10.30
2022-11-20T06:16:21.414Z,9.33
2022-11-20T06:18:49.927Z,10.70
2022-11-20T06:21:20.267Z,9.73
2022-11-20T06:23:50.553Z,9.70
2022-11-20T06:26:21.032Z,12.20
2022-11-20T06:28:49.700Z,9.80
2022-11-20T06:31:20.111Z,9.37
2022-11-20T06:33:48.283Z,8.27
2022-11-20T06:36:18.527Z,8.70
2022-11-20T06:38:47.014Z,8.13
2022-11-20T06:41:19.173Z,8.05
2022-11-20T06:43:47.558Z,7.23
2022-11-20T06:46:18.640Z,7.85
2022-11-20T06:48:47.432Z,7.73
2022-11-20T06:51:15.834Z,10.17
2022-11-20T06:53:43.940Z,7.90
2022-11-20T06:56:12.224Z,8.20
2022-11-20T06:58:42.111Z,9.93
2022-11-20T07:01:13.154Z,8.10
2022-11-20T07:03:41.872Z,8.17
2022-11-20T07:06:10.268Z,9.13
2022-11-20T07:08:38.716Z,9.83
2022-11-20T07:11:09.102Z,8.63
2022-11-20T07:13:37.675Z,8.82
2022-11-20T07:16:09.405Z,13.27
2022-11-20T07:18:38.665Z,12.18
2022-11-20T07:21:09.704Z,9.93
2022-11-20T07:23:37.938Z,9.15
2022-11-20T07:26:06.959Z,10.10
2022-11-20T07:28:35.337Z,11.52
2022-11-20T07:31:06.034Z,10.70
2022-11-20T07:33:36.632Z,8.57
2022-11-20T07:36:05.173Z,10.20
2022-11-20T07:38:33.272Z,10.93
2022-11-20T07:41:02.837Z,12.77
2022-11-20T07:43:31.120Z,12.50
2022-11-20T07:45:59.505Z,13.70
2022-11-20T07:48:31.193Z,17.05
2022-11-20T07:51:12.459Z,13.57
2022-11-20T07:53:43.689Z,11.00
2022-11-20T07:56:11.777Z,12.55
2022-11-20T07:58:39.745Z,11.65
2022-11-20T08:01:09.581Z,12.77
2022-11-20T08:03:39.562Z,13.82
2022-11-20T08:06:13.457Z,14.30
2022-11-20T08:08:43.022Z,13.02
2022-11-20T08:11:28.970Z,14.23
2022-11-20T08:14:15.173Z,14.70
2022-11-20T08:16:45.080Z,15.85
2022-11-20T08:19:13.346Z,11.68
2022-11-20T08:21:43.191Z,11.60
2022-11-20T08:24:12.663Z,10.77
2022-11-20T08:26:42.175Z,9.68
2022-11-20T08:29:10.358Z,12.27
2022-11-20T08:31:38.529Z,11.68
2022-11-20T08:34:09.466Z,10.13
2022-11-20T08:36:38.491Z,9.32
2022-11-20T08:39:08.080Z,8.80
2022-11-20T08:41:37.868Z,8.63
2022-11-20T08:44:07.939Z,8.23
2022-11-20T08:46:38.233Z,8.27
2022-11-20T08:49:07.028Z,9.05
2022-11-20T08:51:35.551Z,8.95
2022-11-20T08:54:03.959Z,9.35
2022-11-20T08:56:35.430Z,9.98
2022-11-20T08:59:26.931Z,13.38
2022-11-20T09:01:53.226Z,8.95
2022-11-20T09:04:21.309Z,10.65
2022-11-20T09:06:52.197Z,8.75
2022-11-20T09:09:21.011Z,8.35
2022-11-20T09:11:51.343Z,7.30
2022-11-20T09:14:19.515Z,8.70
2022-11-20T09:16:48.183Z,8.40
2022-11-20T09:22:04.723Z,8.73
2022-11-20T09:24:33.029Z,12.85
2022-11-20T09:27:04.381Z,12.50
2022-11-20T09:29:32.516Z,10.85
2022-11-20T09:32:00.750Z,10.77
2022-11-20T09:34:28.967Z,9.88
2022-11-20T09:36:57.155Z,8.55
2022-11-20T09:39:25.538Z,8.55
2022-11-20T09:42:14.261Z,9.02
2022-11-20T09:45:11.729Z,9.00
2022-11-20T09:47:55.611Z,8.18
2022-11-20T09:50:32.991Z,8.07
2022-11-20T09:53:17.128Z,8.00
2022-11-20T09:55:48.874Z,8.48
2022-11-20T09:58:33.513Z,7.85
2022-11-20T10:01:11.901Z,5.97
2022-11-20T10:03:52.544Z,5.45
2022-11-20T10:06:26.527Z,6.82
2022-11-20T10:09:03.945Z,6.45
2022-11-20T10:11:41.724Z,5.28
2022-11-20T10:14:23.060Z,5.43
2022-11-20T10:17:03.690Z,5.30
2022-11-20T10:19:49.865Z,6.30
2022-11-20T10:22:32.219Z,4.75
2022-11-20T10:25:08.039Z,5.65
2022-11-20T10:27:51.535Z,3.92
2022-11-20T10:30:26.016Z,4.47
2022-11-20T10:33:05.948Z,4.82
2022-11-20T10:35:38.372Z,4.68
2022-11-20T10:38:15.223Z,5.15
2022-11-20T10:40:46.716Z,4.93
2022-11-20T10:43:18.673Z,5.22
2022-11-20T10:45:53.770Z,5.05
2022-11-20T10:48:24.929Z,5.22
2022-11-20T10:51:07.202Z,5.32
2022-11-20T10:53:54.581Z,6.45
2022-11-20T10:56:27.018Z,6.28
2022-11-20T10:59:25.070Z,6.47
2022-11-20T11:01:54.508Z,6.68
2022-11-20T11:04:38.258Z,7.18
2022-11-20T11:07:13.047Z,6.32
2022-11-20T11:09:45.125Z,6.20
2022-11-20T11:12:13.699Z,5.90
2022-11-20T11:14:49.339Z,6.65
2022-11-20T11:17:29.465Z,7.32
2022-11-20T11:20:07.330Z,7.40
2022-11-20T11:22:45.951Z,7.00
2022-11-20T11:25:23.235Z,6.30
2022-11-20T11:27:55.133Z,5.80
2022-11-20T11:30:23.924Z,6.85
2022-11-20T11:33:04.179Z,6.50
2022-11-20T11:35:33.167Z,6.95
2022-11-20T11:38:07.036Z,6.25
2022-11-20T11:40:42.282Z,5.30
2022-11-20T11:43:37.946Z,7.30
2022-11-20T11:46:25.846Z,7.28
2022-11-20T11:49:00.121Z,5.78
2022-11-20T11:51:36.606Z,6.25
2022-11-20T11:54:10.911Z,6.38
2022-11-20T11:56:39.071Z,6.05
2022-11-20T11:59:14.093Z,7.07
2022-11-20T12:01:49.801Z,4.70
2022-11-20T12:04:38.918Z,4.60
2022-11-20T12:07:44.453Z,4.93
2022-11-20T12:10:04.196Z,3.80
2022-11-20T12:12:38.884Z,4.57
2022-11-20T12:15:12.095Z,5.10
2022-11-20T12:17:40.228Z,6.18
2022-11-20T12:20:15.492Z,5.75
2022-11-20T12:22:55.688Z,6.72
2022-11-20T12:25:28.235Z,6.63
2022-11-20T12:28:23.143Z,5.90
2022-11-20T12:31:04.081Z,4.82
2022-11-20T12:33:48.247Z,4.80
2022-11-20T12:36:27.039Z,5.00
2022-11-20T12:39:19.478Z,5.30
2022-11-20T12:42:24.755Z,3.55
2022-11-20T12:45:12.501Z,4.40
2022-11-20T12:48:13.016Z,4.05
2022-11-20T12:51:14.063Z,4.47
2022-11-20T12:53:53.614Z,4.60
2022-11-20T12:56:34.477Z,5.20
2022-11-20T12:59:20.948Z,4.68
2022-11-20T13:01:54.204Z,4.45
2022-11-20T13:04:51.238Z,4.35
2022-11-20T13:07:20.705Z,4.97
2022-11-20T13:09:53.025Z,6.00
2022-11-20T13:12:27.605Z,5.53
2022-11-20T13:15:02.562Z,6.18
2022-11-20T13:17:36.652Z,6.28
2022-11-20T13:20:07.832Z,6.00
2022-11-20T13:22:46.466Z,5.32
2022-11-20T13:25:26.756Z,6.45
2022-11-20T13:27:56.059Z,6.00
2022-11-20T13:30:26.135Z,5.55
2022-11-20T13:32:56.798Z,5.53
2022-11-20T13:35:31.560Z,5.18
2022-11-20T13:38:05.742Z,5.20
2022-11-20T13:40:36.257Z,4.20
2022-11-20T13:43:13.460Z,5.45
2022-11-20T13:45:41.554Z,5.65
2022-11-20T13:48:23.063Z,4.43
2022-11-20T13:51:01.868Z,4.63
2022-11-20T13:53:41.452Z,3.95
2022-11-20T13:56:24.393Z,5.07
2022-11-20T13:59:04.940Z,3.95
2022-11-20T14:01:35.728Z,3.40
2022-11-20T14:04:10.433Z,3.03
2022-11-20T14:06:44.834Z,2.40
2022-11-20T14:09:14.940Z,1.88
2022-11-20T14:11:49.944Z,1.90
2022-11-20T14:14:22.211Z,1.42
2022-11-20T14:16:52.198Z,1.48
2022-11-20T14:19:31.544Z,1.73
2022-11-20T14:22:19.760Z,1.58
2022-11-20T14:24:48.144Z,1.13
2022-11-20T14:27:20.617Z,1.08
2022-11-20T14:29:51.693Z,1.05
2022-11-20T14:32:21.519Z,1.23
2022-11-20T14:34:51.941Z,1.55
2022-11-20T14:37:23.969Z,1.85
2022-11-20T14:39:54.629Z,1.25
2022-11-20T14:42:25.902Z,1.95
2022-11-20T14:44:57.234Z,2.10
2022-11-20T14:47:28.184Z,2.83
2022-11-20T14:49:57.982Z,2.42
2022-11-20T14:52:27.805Z,3.10
2022-11-20T14:54:56.854Z,3.88
2022-11-20T14:57:29.149Z,2.88
2022-11-20T15:00:10.262Z,2.50
2022-11-20T15:02:43.617Z,3.47
2022-11-20T15:05:12.345Z,4.38
2022-11-20T15:07:46.704Z,3.17
2022-11-20T15:10:21.909Z,3.78
2022-11-20T15:12:52.769Z,2.47
2022-11-20T15:15:27.103Z,3.67
2022-11-20T15:17:55.660Z,11.07
2022-11-20T15:20:26.666Z,5.32
2022-11-20T15:22:54.722Z,3.28
2022-11-20T15:25:22.704Z,18.55
2022-11-20T15:27:55.617Z,17.67
2022-11-20T15:30:24.438Z,30.23
2022-11-20T15:32:52.482Z,29.55
2022-11-20T15:35:20.550Z,33.35
2022-11-20T15:37:48.547Z,20.30
2022-11-20T15:40:17.140Z,24.58
2022-11-20T15:43:06.773Z,11.23
2022-11-20T15:45:43.663Z,6.20
2022-11-20T15:48:16.064Z,6.93
2022-11-20T15:50:52.652Z,6.05
2022-11-20T15:53:21.071Z,3.30
2022-11-20T15:55:49.213Z,4.22
2022-11-20T15:58:18.183Z,4.85
2022-11-20T16:00:48.165Z,5.43
2022-11-20T16:03:18.078Z,4.68
2022-11-20T16:05:46.549Z,4.47
2022-11-20T16:08:15.034Z,5.38
2022-11-20T16:10:43.467Z,4.38
2022-11-20T16:13:34.079Z,3.15
2022-11-20T16:16:07.284Z,3.97
2022-11-20T16:18:35.942Z,3.78
2022-11-20T16:21:03.932Z,7.10
2022-11-20T16:23:32.090Z,4.15
2022-11-20T16:26:00.204Z,3.20
2022-11-20T16:28:28.348Z,3.53
2022-11-20T16:30:56.463Z,3.63
2022-11-20T16:33:25.910Z,3.50
2022-11-20T16:35:53.928Z,4.07
2022-11-20T16:38:22.082Z,4.72
2022-11-20T16:40:50.261Z,5.45
2022-11-20T16:43:18.500Z,5.55
2022-11-20T16:45:47.491Z,5.65
2022-11-20T16:48:16.774Z,5.47
2022-11-20T16:50:52.049Z,5.13
2022-11-20T16:53:21.347Z,5.05
2022-11-20T16:55:49.883Z,7.05
2022-11-20T16:58:18.207Z,5.85
2022-11-20T17:00:51.464Z,5.45
2022-11-20T17:03:21.074Z,5.25
2022-11-20T17:05:51.075Z,4.70
2022-11-20T17:08:19.353Z,4.90
2022-11-20T17:10:47.541Z,5.25
2022-11-20T17:13:15.655Z,4.65
2022-11-20T17:15:43.728Z,4.57
2022-11-20T17:18:11.892Z,4.80
2022-11-20T17:20:39.964Z,4.20
2022-11-20T17:23:09.462Z,4.50
2022-11-20T17:25:37.832Z,5.40
2022-11-20T17:28:06.590Z,5.50
2022-11-20T17:30:34.641Z,5.57
2022-11-20T17:33:03.077Z,5.70
2022-11-20T17:35:31.166Z,6.47
2022-11-20T17:37:59.350Z,9.27
2022-11-20T17:40:28.798Z,9.68
2022-11-20T17:42:56.758Z,7.28
2022-11-20T17:45:25.034Z,45.10
2022-11-20T17:47:53.096Z,17.70
2022-11-20T17:50:21.368Z,9.00
2022-11-20T17:52:49.541Z,17.45
2022-11-20T17:55:17.855Z,10.65
2022-11-20T17:57:58.038Z,9.00
2022-11-20T18:00:27.055Z,11.05
2022-11-20T18:02:55.387Z,13.60
2022-11-20T18:05:23.509Z,19.65
2022-11-20T18:07:54.624Z,13.80
2022-11-20T18:10:22.763Z,7.70
2022-11-20T18:12:54.011Z,7.85
2022-11-20T18:15:22.029Z,9.48
2022-11-20T18:17:50.235Z,8.18
2022-11-20T18:20:28.962Z,8.10
2022-11-20T18:23:00.117Z,7.50
2022-11-20T18:25:28.363Z,8.77
2022-11-20T18:27:57.875Z,8.27
2022-11-20T18:30:27.199Z,7.88
2022-11-20T18:32:55.777Z,8.67
2022-11-20T18:35:23.875Z,9.57
2022-11-20T18:37:52.173Z,9.27
2022-11-20T18:40:20.303Z,8.80
2022-11-20T18:43:05.619Z,10.85
2022-11-20T18:45:35.438Z,9.85
2022-11-20T18:48:03.434Z,9.35
2022-11-20T18:50:31.560Z,10.60
2022-11-20T18:52:59.738Z,8.80
2022-11-20T18:55:27.823Z,9.27
2022-11-20T18:57:56.078Z,10.13
2022-11-20T19:00:24.940Z,9.80
2022-11-20T19:02:55.615Z,9.77
2022-11-20T19:05:23.831Z,8.95
2022-11-20T19:07:52.440Z,10.38
2022-11-20T19:10:21.346Z,9.00
2022-11-20T19:12:49.440Z,8.87
2022-11-20T19:15:17.610Z,8.35
2022-11-20T19:17:45.715Z,9.03
2022-11-20T19:20:15.365Z,9.73
2022-11-20T19:22:43.683Z,11.73
2022-11-20T19:25:15.364Z,8.90
2022-11-20T19:27:43.593Z,8.05
2022-11-20T19:30:12.892Z,7.53
2022-11-20T19:32:40.982Z,8.32
2022-11-20T19:35:10.686Z,8.03
2022-11-20T19:37:40.089Z,9.60
2022-11-20T19:40:09.133Z,11.93
2022-11-20T19:42:37.127Z,9.43
2022-11-20T19:45:05.726Z,7.43
2022-11-20T19:48:06.142Z,7.97
2022-11-20T19:50:21.913Z,6.97
2022-11-20T19:52:55.835Z,7.45
2022-11-20T19:55:26.936Z,8.80
2022-11-20T19:57:55.261Z,12.30
2022-11-20T20:00:31.071Z,10.43
2022-11-20T20:03:00.768Z,7.72
2022-11-20T20:05:28.894Z,7.70
2022-11-20T20:07:59.208Z,9.38
2022-11-20T20:10:28.444Z,8.27
2022-11-20T20:12:56.482Z,7.70
2022-11-20T20:18:10.491Z,9.45
2022-11-20T20:20:38.606Z,8.30
2022-11-20T20:23:08.156Z,8.40
2022-11-20T20:25:38.369Z,9.70
2022-11-20T20:28:06.909Z,9.97
2022-11-20T20:30:37.397Z,9.03
2022-11-20T20:33:07.525Z,22.50
2022-11-20T20:35:35.967Z,9.88
2022-11-20T20:38:03.964Z,11.07
2022-11-20T20:40:33.727Z,7.97
2022-11-20T20:43:01.679Z,9.77
2022-11-20T20:45:29.713Z,8.05
2022-11-20T20:47:57.932Z,9.23
2022-11-20T20:50:25.992Z,11.77
2022-11-20T20:52:54.513Z,8.80
2022-11-20T20:55:22.622Z,8.63
2022-11-20T20:57:53.694Z,7.57
2022-11-20T21:00:21.818Z,7.23
2022-11-20T21:02:49.871Z,13.07
2022-11-20T21:05:18.098Z,11.03
2022-11-20T21:07:59.973Z,8.93
2022-11-20T21:10:28.255Z,10.17
2022-11-20T21:12:57.693Z,8.00
2022-11-20T21:15:25.693Z,12.07
2022-11-20T21:17:53.749Z,9.70
2022-11-20T21:20:39.575Z,8.88
2022-11-20T21:23:10.575Z,15.43
2022-11-20T21:25:39.547Z,12.57
2022-11-20T21:28:10.431Z,18.40
2022-11-20T21:30:41.181Z,11.13
2022-11-20T21:33:09.204Z,12.57
2022-11-20T21:35:37.936Z,10.45
2022-11-20T21:38:06.443Z,9.93
2022-11-20T21:40:34.460Z,9.30
2022-11-20T21:43:02.481Z,9.93
2022-11-20T21:45:31.955Z,9.70
2022-11-20T21:47:59.987Z,9.37
2022-11-20T21:50:28.024Z,10.23
2022-11-20T21:52:57.174Z,8.23
2022-11-20T21:55:25.227Z,8.93
2022-11-20T21:57:53.219Z,8.63
2022-11-20T22:00:21.675Z,7.50
2022-11-20T22:02:51.039Z,8.13
2022-11-20T22:05:19.131Z,7.60
2022-11-20T22:07:47.282Z,7.40
2022-11-20T22:10:18.424Z,8.20
2022-11-20T22:12:46.961Z,7.70
2022-11-20T22:15:23.731Z,7.50
2022-11-20T22:18:14.729Z,8.40
2022-11-20T22:20:44.161Z,8.47
2022-11-20T22:23:12.323Z,9.00
2022-11-20T22:25:40.434Z,8.60
2022-11-20T22:28:08.446Z,8.37
2022-11-20T22:30:36.395Z,7.87
2022-11-20T22:33:10.387Z,8.20
2022-11-20T22:35:41.242Z,7.27
2022-11-20T22:38:09.361Z,8.40
2022-11-20T22:40:37.420Z,7.57
2022-11-20T22:43:05.547Z,8.40
2022-11-20T22:45:33.692Z,7.63
2022-11-20T22:48:01.798Z,8.43
2022-11-20T22:50:32.669Z,8.43
2022-11-20T22:53:01.384Z,8.77
2022-11-20T22:55:30.481Z,9.50
2022-11-20T22:57:59.599Z,9.30
2022-11-20T23:00:27.831Z,9.20
2022-11-20T23:02:56.523Z,9.10
2022-11-20T23:05:26.328Z,9.43
2022-11-20T23:07:55.890Z,9.63
2022-11-20T23:10:24.021Z,10.00
2022-11-20T23:12:52.112Z,10.20
2022-11-20T23:15:20.250Z,10.47
2022-11-20T23:17:48.295Z,10.30
2022-11-20T23:20:16.618Z,10.63
2022-11-20T23:22:44.687Z,10.37
2022-11-20T23:25:14.563Z,11.03
2022-11-20T23:27:42.597Z,10.90
2022-11-20T23:30:11.943Z,12.60
2022-11-20T23:32:40.546Z,12.50
2022-11-20T23:35:09.453Z,12.80
2022-11-20T23:37:38.618Z,12.27
2022-11-20T23:40:08.531Z,13.00
2022-11-20T23:42:58.012Z,12.13
2022-11-20T23:45:26.430Z,12.77
2022-11-20T23:47:54.486Z,11.37
2022-11-20T23:50:22.984Z,11.23
2022-11-20T23:52:51.211Z,11.43
2022-11-20T23:55:19.249Z,10.67
2022-11-20T23:57:48.940Z,10.43
